sensor_id;sensor_type;location;lat;lon;timestamp;temperature;humidity
32097;DHT22;18610;49.916;8.284;2023-06-26T00:01:06;20.10;95.30
32097;DHT22;18610;49.916;8.284;2023-06-26T00:03:33;20.00;95.50
32097;DHT22;18610;49.916;8.284;2023-06-26T00:06:00;20.00;95.80
32097;DHT22;18610;49.916;8.284;2023-06-26T00:08:27;20.00;96.00
32097;DHT22;18610;49.916;8.284;2023-06-26T00:10:53;19.90;96.30
32097;DHT22;18610;49.916;8.284;2023-06-26T00:13:20;19.90;96.50
32097;DHT22;18610;49.916;8.284;2023-06-26T00:15:48;19.80;96.90
32097;DHT22;18610;49.916;8.284;2023-06-26T00:18:15;19.80;97.20
32097;DHT22;18610;49.916;8.284;2023-06-26T00:20:42;19.70;97.50
32097;DHT22;18610;49.916;8.284;2023-06-26T00:23:08;19.70;97.80
32097;DHT22;18610;49.916;8.284;2023-06-26T00:25:35;19.70;98.10
32097;DHT22;18610;49.916;8.284;2023-06-26T00:28:02;19.70;98.50
32097;DHT22;18610;49.916;8.284;2023-06-26T00:30:28;19.60;98.60
32097;DHT22;18610;49.916;8.284;2023-06-26T00:32:56;19.60;98.90
32097;DHT22;18610;49.916;8.284;2023-06-26T00:35:23;19.60;99.20
32097;DHT22;18610;49.916;8.284;2023-06-26T00:37:50;19.50;99.60
32097;DHT22;18610;49.916;8.284;2023-06-26T00:40:17;19.50;99.80
32097;DHT22;18610;49.916;8.284;2023-06-26T00:42:43;19.40;99.90
32097;DHT22;18610;49.916;8.284;2023-06-26T00:45:10;19.40;99.90
32097;DHT22;18610;49.916;8.284;2023-06-26T00:47:37;19.30;99.90
32097;DHT22;18610;49.916;8.284;2023-06-26T00:50:07;19.30;99.90
32097;DHT22;18610;49.916;8.284;2023-06-26T00:52:34;19.30;99.90
32097;DHT22;18610;49.916;8.284;2023-06-26T00:55:01;19.20;99.90
32097;DHT22;18610;49.916;8.284;2023-06-26T00:57:27;19.20;99.90
32097;DHT22;18610;49.916;8.284;2023-06-26T00:59:54;19.20;99.90
32097;DHT22;18610;49.916;8.284;2023-06-26T01:02:21;19.20;99.90
32097;DHT22;18610;49.916;8.284;2023-06-26T01:04:48;19.20;99.90
32097;DHT22;18610;49.916;8.284;2023-06-26T01:07:16;19.10;99.90
32097;DHT22;18610;49.916;8.284;2023-06-26T01:09:46;19.10;99.90
32097;DHT22;18610;49.916;8.284;2023-06-26T01:12:14;19.00;99.90
32097;DHT22;18610;49.916;8.284;2023-06-26T01:14:41;19.00;99.90
32097;DHT22;18610;49.916;8.284;2023-06-26T01:17:08;19.00;99.90
32097;DHT22;18610;49.916;8.284;2023-06-26T01:19:37;19.00;99.90
32097;DHT22;18610;49.916;8.284;2023-06-26T01:22:10;19.00;99.90
32097;DHT22;18610;49.916;8.284;2023-06-26T01:24:53;19.00;99.90
32097;DHT22;18610;49.916;8.284;2023-06-26T01:27:24;18.90;99.90
32097;DHT22;18610;49.916;8.284;2023-06-26T01:29:53;18.90;99.90
32097;DHT22;18610;49.916;8.284;2023-06-26T01:32:21;18.90;99.90
32097;DHT22;18610;49.916;8.284;2023-06-26T01:34:48;18.90;99.90
32097;DHT22;18610;49.916;8.284;2023-06-26T01:37:15;18.90;99.90
32097;DHT22;18610;49.916;8.284;2023-06-26T01:39:42;18.90;99.90
32097;DHT22;18610;49.916;8.284;2023-06-26T01:42:09;18.80;99.90
32097;DHT22;18610;49.916;8.284;2023-06-26T01:44:42;18.70;99.90
32097;DHT22;18610;49.916;8.284;2023-06-26T01:47:13;18.70;99.90
32097;DHT22;18610;49.916;8.284;2023-06-26T01:49:47;18.60;99.90
32097;DHT22;18610;49.916;8.284;2023-06-26T01:52:17;18.60;99.90
32097;DHT22;18610;49.916;8.284;2023-06-26T01:54:52;18.50;99.90
32097;DHT22;18610;49.916;8.284;2023-06-26T01:57:20;18.50;99.90
32097;DHT22;18610;49.916;8.284;2023-06-26T01:59:51;18.50;99.90
32097;DHT22;18610;49.916;8.284;2023-06-26T02:02:18;18.50;99.90
32097;DHT22;18610;49.916;8.284;2023-06-26T02:04:45;18.40;99.90
32097;DHT22;18610;49.916;8.284;2023-06-26T02:07:13;18.30;99.90
32097;DHT22;18610;49.916;8.284;2023-06-26T02:09:40;18.30;99.90
32097;DHT22;18610;49.916;8.284;2023-06-26T02:12:08;18.30;99.90
32097;DHT22;18610;49.916;8.284;2023-06-26T02:14:34;18.30;99.90
32097;DHT22;18610;49.916;8.284;2023-06-26T02:17:03;18.20;99.90
32097;DHT22;18610;49.916;8.284;2023-06-26T02:19:30;18.20;99.90
32097;DHT22;18610;49.916;8.284;2023-06-26T02:21:56;18.20;99.90
32097;DHT22;18610;49.916;8.284;2023-06-26T02:24:23;18.20;99.90
32097;DHT22;18610;49.916;8.284;2023-06-26T02:26:50;18.20;99.90
32097;DHT22;18610;49.916;8.284;2023-06-26T02:29:16;18.10;99.90
32097;DHT22;18610;49.916;8.284;2023-06-26T02:31:43;18.10;99.90
32097;DHT22;18610;49.916;8.284;2023-06-26T02:34:11;18.10;99.90
32097;DHT22;18610;49.916;8.284;2023-06-26T02:36:38;18.00;99.90
32097;DHT22;18610;49.916;8.284;2023-06-26T02:39:05;18.00;99.90
32097;DHT22;18610;49.916;8.284;2023-06-26T02:41:31;18.00;99.90
32097;DHT22;18610;49.916;8.284;2023-06-26T02:43:58;17.90;99.90
32097;DHT22;18610;49.916;8.284;2023-06-26T02:46:25;17.90;99.90
32097;DHT22;18610;49.916;8.284;2023-06-26T02:48:51;17.90;99.90
32097;DHT22;18610;49.916;8.284;2023-06-26T02:51:19;17.90;99.90
32097;DHT22;18610;49.916;8.284;2023-06-26T02:53:46;17.90;99.90
32097;DHT22;18610;49.916;8.284;2023-06-26T02:56:13;17.90;99.90
32097;DHT22;18610;49.916;8.284;2023-06-26T02:58:39;17.90;99.90
32097;DHT22;18610;49.916;8.284;2023-06-26T03:01:07;17.80;99.90
32097;DHT22;18610;49.916;8.284;2023-06-26T03:03:34;17.80;99.90
32097;DHT22;18610;49.916;8.284;2023-06-26T03:06:05;17.80;99.90
32097;DHT22;18610;49.916;8.284;2023-06-26T03:08:37;17.70;99.90
32097;DHT22;18610;49.916;8.284;2023-06-26T03:11:04;17.70;99.90
32097;DHT22;18610;49.916;8.284;2023-06-26T03:13:32;17.60;99.90
32097;DHT22;18610;49.916;8.284;2023-06-26T03:15:58;17.60;99.90
32097;DHT22;18610;49.916;8.284;2023-06-26T03:18:25;17.60;99.90
32097;DHT22;18610;49.916;8.284;2023-06-26T03:20:52;17.60;99.90
32097;DHT22;18610;49.916;8.284;2023-06-26T03:23:20;17.60;99.90
32097;DHT22;18610;49.916;8.284;2023-06-26T03:25:48;17.60;99.90
32097;DHT22;18610;49.916;8.284;2023-06-26T03:28:15;17.60;99.90
32097;DHT22;18610;49.916;8.284;2023-06-26T03:30:42;17.60;99.90
32097;DHT22;18610;49.916;8.284;2023-06-26T03:33:09;17.50;99.90
32097;DHT22;18610;49.916;8.284;2023-06-26T03:35:35;17.60;99.90
32097;DHT22;18610;49.916;8.284;2023-06-26T03:38:04;17.50;99.90
32097;DHT22;18610;49.916;8.284;2023-06-26T03:40:31;17.50;99.90
32097;DHT22;18610;49.916;8.284;2023-06-26T03:42:59;17.50;99.90
32097;DHT22;18610;49.916;8.284;2023-06-26T03:45:26;17.60;99.90
32097;DHT22;18610;49.916;8.284;2023-06-26T03:47:52;17.60;99.90
32097;DHT22;18610;49.916;8.284;2023-06-26T03:50:19;17.60;99.90
32097;DHT22;18610;49.916;8.284;2023-06-26T03:52:46;17.60;99.90
32097;DHT22;18610;49.916;8.284;2023-06-26T03:55:13;17.60;99.90
32097;DHT22;18610;49.916;8.284;2023-06-26T03:57:39;17.60;99.90
32097;DHT22;18610;49.916;8.284;2023-06-26T04:00:09;17.60;99.90
32097;DHT22;18610;49.916;8.284;2023-06-26T04:02:38;17.60;99.90
32097;DHT22;18610;49.916;8.284;2023-06-26T04:05:05;17.60;99.90
32097;DHT22;18610;49.916;8.284;2023-06-26T04:07:32;17.60;99.90
32097;DHT22;18610;49.916;8.284;2023-06-26T04:09:59;17.70;99.90
32097;DHT22;18610;49.916;8.284;2023-06-26T04:12:26;17.70;99.90
32097;DHT22;18610;49.916;8.284;2023-06-26T04:14:52;17.70;99.90
32097;DHT22;18610;49.916;8.284;2023-06-26T04:17:20;17.80;99.90
32097;DHT22;18610;49.916;8.284;2023-06-26T04:19:47;17.80;99.90
32097;DHT22;18610;49.916;8.284;2023-06-26T04:22:14;17.80;99.90
32097;DHT22;18610;49.916;8.284;2023-06-26T04:24:40;17.80;99.90
32097;DHT22;18610;49.916;8.284;2023-06-26T04:27:07;17.80;99.90
32097;DHT22;18610;49.916;8.284;2023-06-26T04:29:34;17.80;99.90
32097;DHT22;18610;49.916;8.284;2023-06-26T04:32:01;17.80;99.90
32097;DHT22;18610;49.916;8.284;2023-06-26T04:34:30;17.80;99.90
32097;DHT22;18610;49.916;8.284;2023-06-26T04:36:58;17.80;99.90
32097;DHT22;18610;49.916;8.284;2023-06-26T04:39:24;17.80;99.90
32097;DHT22;18610;49.916;8.284;2023-06-26T04:41:51;17.90;99.90
32097;DHT22;18610;49.916;8.284;2023-06-26T04:44:18;17.90;99.90
32097;DHT22;18610;49.916;8.284;2023-06-26T04:46:44;17.90;99.90
32097;DHT22;18610;49.916;8.284;2023-06-26T04:49:11;17.90;99.90
32097;DHT22;18610;49.916;8.284;2023-06-26T04:51:40;17.90;99.90
32097;DHT22;18610;49.916;8.284;2023-06-26T04:54:07;18.00;99.90
32097;DHT22;18610;49.916;8.284;2023-06-26T04:56:34;17.90;99.90
32097;DHT22;18610;49.916;8.284;2023-06-26T04:59:01;17.90;99.90
32097;DHT22;18610;49.916;8.284;2023-06-26T05:01:27;18.00;99.90
32097;DHT22;18610;49.916;8.284;2023-06-26T05:03:55;18.20;99.90
32097;DHT22;18610;49.916;8.284;2023-06-26T05:06:22;18.40;99.90
32097;DHT22;18610;49.916;8.284;2023-06-26T05:08:50;18.50;99.90
32097;DHT22;18610;49.916;8.284;2023-06-26T05:11:17;18.60;99.90
32097;DHT22;18610;49.916;8.284;2023-06-26T05:13:44;18.70;99.90
32097;DHT22;18610;49.916;8.284;2023-06-26T05:16:10;18.80;99.90
32097;DHT22;18610;49.916;8.284;2023-06-26T05:18:37;19.00;99.90
32097;DHT22;18610;49.916;8.284;2023-06-26T05:21:05;19.10;99.90
32097;DHT22;18610;49.916;8.284;2023-06-26T05:23:32;19.30;99.90
32097;DHT22;18610;49.916;8.284;2023-06-26T05:26:01;19.40;99.90
32097;DHT22;18610;49.916;8.284;2023-06-26T05:28:29;19.50;99.90
32097;DHT22;18610;49.916;8.284;2023-06-26T05:30:57;19.60;99.90
32097;DHT22;18610;49.916;8.284;2023-06-26T05:33:25;19.80;99.90
32097;DHT22;18610;49.916;8.284;2023-06-26T05:35:53;20.00;99.90
32097;DHT22;18610;49.916;8.284;2023-06-26T05:38:20;20.00;99.90
32097;DHT22;18610;49.916;8.284;2023-06-26T05:40:48;20.20;99.90
32097;DHT22;18610;49.916;8.284;2023-06-26T05:43:17;20.30;99.90
32097;DHT22;18610;49.916;8.284;2023-06-26T05:45:47;20.50;99.90
32097;DHT22;18610;49.916;8.284;2023-06-26T05:48:14;20.70;99.90
32097;DHT22;18610;49.916;8.284;2023-06-26T05:50:42;20.80;99.90
32097;DHT22;18610;49.916;8.284;2023-06-26T05:53:09;21.00;99.90
32097;DHT22;18610;49.916;8.284;2023-06-26T05:55:36;21.20;99.90
32097;DHT22;18610;49.916;8.284;2023-06-26T05:58:03;21.30;99.90
32097;DHT22;18610;49.916;8.284;2023-06-26T06:00:33;21.50;99.90
32097;DHT22;18610;49.916;8.284;2023-06-26T06:02:59;21.70;99.90
32097;DHT22;18610;49.916;8.284;2023-06-26T06:05:26;21.90;99.90
32097;DHT22;18610;49.916;8.284;2023-06-26T06:07:53;22.10;99.90
32097;DHT22;18610;49.916;8.284;2023-06-26T06:10:19;22.30;99.90
32097;DHT22;18610;49.916;8.284;2023-06-26T06:12:46;22.40;97.80
32097;DHT22;18610;49.916;8.284;2023-06-26T06:15:13;22.40;97.30
32097;DHT22;18610;49.916;8.284;2023-06-26T06:17:41;22.60;97.20
32097;DHT22;18610;49.916;8.284;2023-06-26T06:20:08;22.60;96.90
32097;DHT22;18610;49.916;8.284;2023-06-26T06:22:35;22.70;97.10
32097;DHT22;18610;49.916;8.284;2023-06-26T06:25:02;22.80;96.60
32097;DHT22;18610;49.916;8.284;2023-06-26T06:27:29;22.90;96.20
32097;DHT22;18610;49.916;8.284;2023-06-26T06:29:56;23.00;96.70
32097;DHT22;18610;49.916;8.284;2023-06-26T06:32:23;23.10;96.80
32097;DHT22;18610;49.916;8.284;2023-06-26T06:34:51;23.00;96.50
32097;DHT22;18610;49.916;8.284;2023-06-26T06:37:17;23.10;96.40
32097;DHT22;18610;49.916;8.284;2023-06-26T06:39:44;23.20;96.70
32097;DHT22;18610;49.916;8.284;2023-06-26T06:42:11;23.30;96.70
32097;DHT22;18610;49.916;8.284;2023-06-26T06:44:37;23.50;96.70
32097;DHT22;18610;49.916;8.284;2023-06-26T06:47:04;23.70;95.70
32097;DHT22;18610;49.916;8.284;2023-06-26T06:49:31;23.90;94.50
32097;DHT22;18610;49.916;8.284;2023-06-26T06:51:59;23.90;94.60
32097;DHT22;18610;49.916;8.284;2023-06-26T06:54:26;24.00;94.60
32097;DHT22;18610;49.916;8.284;2023-06-26T06:56:53;24.00;93.20
32097;DHT22;18610;49.916;8.284;2023-06-26T06:59:19;24.00;93.90
32097;DHT22;18610;49.916;8.284;2023-06-26T07:01:46;24.20;93.40
32097;DHT22;18610;49.916;8.284;2023-06-26T07:04:13;24.30;93.20
32097;DHT22;18610;49.916;8.284;2023-06-26T07:06:40;24.50;93.30
32097;DHT22;18610;49.916;8.284;2023-06-26T07:09:08;24.70;92.70
32097;DHT22;18610;49.916;8.284;2023-06-26T07:11:35;24.90;92.00
32097;DHT22;18610;49.916;8.284;2023-06-26T07:14:01;25.00;91.10
32097;DHT22;18610;49.916;8.284;2023-06-26T07:16:28;25.20;91.00
32097;DHT22;18610;49.916;8.284;2023-06-26T07:18:55;25.30;90.60
32097;DHT22;18610;49.916;8.284;2023-06-26T07:21:22;25.50;90.50
32097;DHT22;18610;49.916;8.284;2023-06-26T07:23:49;25.60;88.70
32097;DHT22;18610;49.916;8.284;2023-06-26T07:26:17;25.70;88.10
32097;DHT22;18610;49.916;8.284;2023-06-26T07:28:44;25.80;88.30
32097;DHT22;18610;49.916;8.284;2023-06-26T07:31:10;25.90;87.00
32097;DHT22;18610;49.916;8.284;2023-06-26T07:33:37;26.00;87.10
32097;DHT22;18610;49.916;8.284;2023-06-26T07:36:04;26.20;85.10
32097;DHT22;18610;49.916;8.284;2023-06-26T07:38:31;26.30;79.40
32097;DHT22;18610;49.916;8.284;2023-06-26T07:40:58;26.50;78.50
32097;DHT22;18610;49.916;8.284;2023-06-26T07:43:26;26.60;76.30
32097;DHT22;18610;49.916;8.284;2023-06-26T07:45:53;26.70;76.40
32097;DHT22;18610;49.916;8.284;2023-06-26T07:48:20;26.70;77.00
32097;DHT22;18610;49.916;8.284;2023-06-26T07:50:46;26.90;78.20
32097;DHT22;18610;49.916;8.284;2023-06-26T07:53:13;27.10;77.30
32097;DHT22;18610;49.916;8.284;2023-06-26T07:55:40;27.20;76.60
32097;DHT22;18610;49.916;8.284;2023-06-26T07:58:07;27.30;75.90
32097;DHT22;18610;49.916;8.284;2023-06-26T08:00:36;27.60;75.60
32097;DHT22;18610;49.916;8.284;2023-06-26T08:03:03;27.70;72.00
32097;DHT22;18610;49.916;8.284;2023-06-26T08:05:29;27.70;71.20
32097;DHT22;18610;49.916;8.284;2023-06-26T08:07:56;27.60;70.10
32097;DHT22;18610;49.916;8.284;2023-06-26T08:10:23;27.50;70.00
32097;DHT22;18610;49.916;8.284;2023-06-26T08:12:50;27.50;70.40
32097;DHT22;18610;49.916;8.284;2023-06-26T08:15:18;27.70;70.60
32097;DHT22;18610;49.916;8.284;2023-06-26T08:17:46;27.90;69.70
32097;DHT22;18610;49.916;8.284;2023-06-26T08:20:13;28.10;69.50
32097;DHT22;18610;49.916;8.284;2023-06-26T08:22:40;28.30;67.80
32097;DHT22;18610;49.916;8.284;2023-06-26T08:25:07;28.40;67.10
32097;DHT22;18610;49.916;8.284;2023-06-26T08:27:34;28.70;67.10
32097;DHT22;18610;49.916;8.284;2023-06-26T08:30:01;28.80;65.80
32097;DHT22;18610;49.916;8.284;2023-06-26T08:32:28;29.00;67.10
32097;DHT22;18610;49.916;8.284;2023-06-26T08:34:56;29.20;65.30
32097;DHT22;18610;49.916;8.284;2023-06-26T08:37:23;29.20;64.70
32097;DHT22;18610;49.916;8.284;2023-06-26T08:39:49;29.40;64.70
32097;DHT22;18610;49.916;8.284;2023-06-26T08:42:16;29.50;64.70
32097;DHT22;18610;49.916;8.284;2023-06-26T08:44:43;29.50;63.70
32097;DHT22;18610;49.916;8.284;2023-06-26T08:47:11;29.40;64.00
32097;DHT22;18610;49.916;8.284;2023-06-26T08:49:46;29.40;63.10
32097;DHT22;18610;49.916;8.284;2023-06-26T08:52:17;29.40;64.00
32097;DHT22;18610;49.916;8.284;2023-06-26T08:54:48;29.40;64.80
32097;DHT22;18610;49.916;8.284;2023-06-26T08:57:18;29.60;65.10
32097;DHT22;18610;49.916;8.284;2023-06-26T08:59:46;29.80;63.10
32097;DHT22;18610;49.916;8.284;2023-06-26T09:02:13;29.90;62.40
32097;DHT22;18610;49.916;8.284;2023-06-26T09:04:40;29.90;61.00
32097;DHT22;18610;49.916;8.284;2023-06-26T09:07:07;29.80;61.70
32097;DHT22;18610;49.916;8.284;2023-06-26T09:09:36;29.90;62.10
32097;DHT22;18610;49.916;8.284;2023-06-26T09:12:03;30.10;62.10
32097;DHT22;18610;49.916;8.284;2023-06-26T09:14:30;30.10;60.80
32097;DHT22;18610;49.916;8.284;2023-06-26T09:16:57;30.00;60.90
32097;DHT22;18610;49.916;8.284;2023-06-26T09:19:24;30.20;61.70
32097;DHT22;18610;49.916;8.284;2023-06-26T09:21:50;30.40;61.20
32097;DHT22;18610;49.916;8.284;2023-06-26T09:24:18;30.50;61.20
32097;DHT22;18610;49.916;8.284;2023-06-26T09:26:46;30.60;61.30
32097;DHT22;18610;49.916;8.284;2023-06-26T09:29:13;30.60;59.70
32097;DHT22;18610;49.916;8.284;2023-06-26T09:31:40;30.30;59.90
32097;DHT22;18610;49.916;8.284;2023-06-26T09:34:08;30.10;60.10
32097;DHT22;18610;49.916;8.284;2023-06-26T09:36:35;30.00;61.60
32097;DHT22;18610;49.916;8.284;2023-06-26T09:39:03;30.00;60.00
32097;DHT22;18610;49.916;8.284;2023-06-26T09:41:34;29.90;61.20
32097;DHT22;18610;49.916;8.284;2023-06-26T09:44:02;29.90;61.30
32097;DHT22;18610;49.916;8.284;2023-06-26T09:46:30;29.80;61.60
32097;DHT22;18610;49.916;8.284;2023-06-26T09:49:02;29.90;62.40
32097;DHT22;18610;49.916;8.284;2023-06-26T09:51:30;30.00;61.30
32097;DHT22;18610;49.916;8.284;2023-06-26T09:53:57;30.00;61.30
32097;DHT22;18610;49.916;8.284;2023-06-26T09:56:24;29.80;61.70
32097;DHT22;18610;49.916;8.284;2023-06-26T09:58:51;29.70;62.00
32097;DHT22;18610;49.916;8.284;2023-06-26T10:01:19;29.80;62.40
32097;DHT22;18610;49.916;8.284;2023-06-26T10:03:46;29.90;62.50
32097;DHT22;18610;49.916;8.284;2023-06-26T10:06:13;29.90;61.30
32097;DHT22;18610;49.916;8.284;2023-06-26T10:08:41;29.80;61.30
32097;DHT22;18610;49.916;8.284;2023-06-26T10:11:14;30.00;62.30
32097;DHT22;18610;49.916;8.284;2023-06-26T10:13:43;30.20;60.90
32097;DHT22;18610;49.916;8.284;2023-06-26T10:16:13;30.40;60.80
32097;DHT22;18610;49.916;8.284;2023-06-26T10:18:45;30.60;60.10
32097;DHT22;18610;49.916;8.284;2023-06-26T10:21:13;30.70;59.80
32097;DHT22;18610;49.916;8.284;2023-06-26T10:23:41;30.90;59.10
32097;DHT22;18610;49.916;8.284;2023-06-26T10:26:11;31.10;59.00
32097;DHT22;18610;49.916;8.284;2023-06-26T10:28:40;31.40;59.10
32097;DHT22;18610;49.916;8.284;2023-06-26T10:31:09;31.70;58.10
32097;DHT22;18610;49.916;8.284;2023-06-26T10:33:36;32.00;57.90
32097;DHT22;18610;49.916;8.284;2023-06-26T10:36:15;32.20;56.70
32097;DHT22;18610;49.916;8.284;2023-06-26T10:38:52;32.30;55.60
32097;DHT22;18610;49.916;8.284;2023-06-26T10:41:20;32.00;54.90
32097;DHT22;18610;49.916;8.284;2023-06-26T10:43:50;31.90;55.90
32097;DHT22;18610;49.916;8.284;2023-06-26T10:46:18;31.90;55.80
32097;DHT22;18610;49.916;8.284;2023-06-26T10:48:59;32.10;56.20
32097;DHT22;18610;49.916;8.284;2023-06-26T10:51:28;32.40;56.20
32097;DHT22;18610;49.916;8.284;2023-06-26T10:53:55;32.70;55.10
32097;DHT22;18610;49.916;8.284;2023-06-26T10:56:41;32.80;54.30
32097;DHT22;18610;49.916;8.284;2023-06-26T10:59:14;32.60;53.50
32097;DHT22;18610;49.916;8.284;2023-06-26T11:01:43;32.60;53.90
32097;DHT22;18610;49.916;8.284;2023-06-26T11:04:10;32.70;52.70
32097;DHT22;18610;49.916;8.284;2023-06-26T11:06:39;32.70;52.70
32097;DHT22;18610;49.916;8.284;2023-06-26T11:09:10;32.80;52.50
32097;DHT22;18610;49.916;8.284;2023-06-26T11:11:59;33.00;51.00
32097;DHT22;18610;49.916;8.284;2023-06-26T11:14:31;32.80;50.20
32097;DHT22;18610;49.916;8.284;2023-06-26T11:16:59;32.80;51.00
32097;DHT22;18610;49.916;8.284;2023-06-26T11:19:28;32.50;49.50
32097;DHT22;18610;49.916;8.284;2023-06-26T11:22:03;32.20;50.00
32097;DHT22;18610;49.916;8.284;2023-06-26T11:24:30;32.20;50.60
32097;DHT22;18610;49.916;8.284;2023-06-26T11:27:00;32.20;49.20
32097;DHT22;18610;49.916;8.284;2023-06-26T11:29:29;32.10;49.00
32097;DHT22;18610;49.916;8.284;2023-06-26T11:32:00;32.00;48.90
32097;DHT22;18610;49.916;8.284;2023-06-26T11:34:30;32.00;49.20
32097;DHT22;18610;49.916;8.284;2023-06-26T11:36:57;32.10;48.50
32097;DHT22;18610;49.916;8.284;2023-06-26T11:39:28;32.00;48.90
32097;DHT22;18610;49.916;8.284;2023-06-26T11:41:56;31.90;48.60
32097;DHT22;18610;49.916;8.284;2023-06-26T11:44:23;32.00;48.10
32097;DHT22;18610;49.916;8.284;2023-06-26T11:46:52;32.10;48.00
32097;DHT22;18610;49.916;8.284;2023-06-26T11:49:21;32.00;47.80
32097;DHT22;18610;49.916;8.284;2023-06-26T11:51:48;32.00;47.60
32097;DHT22;18610;49.916;8.284;2023-06-26T11:54:22;31.90;48.10
32097;DHT22;18610;49.916;8.284;2023-06-26T11:56:57;32.20;48.60
32097;DHT22;18610;49.916;8.284;2023-06-26T11:59:33;32.60;47.80
32097;DHT22;18610;49.916;8.284;2023-06-26T12:02:00;32.90;48.00
32097;DHT22;18610;49.916;8.284;2023-06-26T12:04:28;33.30;47.50
32097;DHT22;18610;49.916;8.284;2023-06-26T12:06:55;33.40;45.80
32097;DHT22;18610;49.916;8.284;2023-06-26T12:09:23;33.20;46.40
32097;DHT22;18610;49.916;8.284;2023-06-26T12:11:55;33.00;46.10
32097;DHT22;18610;49.916;8.284;2023-06-26T12:14:22;33.00;46.60
32097;DHT22;18610;49.916;8.284;2023-06-26T12:16:51;33.10;45.70
32097;DHT22;18610;49.916;8.284;2023-06-26T12:19:24;33.20;45.60
32097;DHT22;18610;49.916;8.284;2023-06-26T12:21:51;33.50;44.30
32097;DHT22;18610;49.916;8.284;2023-06-26T12:24:20;33.70;43.40
32097;DHT22;18610;49.916;8.284;2023-06-26T12:26:49;33.70;42.00
32097;DHT22;18610;49.916;8.284;2023-06-26T12:29:20;33.60;42.50
32097;DHT22;18610;49.916;8.284;2023-06-26T12:31:50;33.50;41.20
32097;DHT22;18610;49.916;8.284;2023-06-26T12:34:19;33.50;40.80
32097;DHT22;18610;49.916;8.284;2023-06-26T12:36:47;33.40;40.60
32097;DHT22;18610;49.916;8.284;2023-06-26T12:39:16;33.50;41.30
32097;DHT22;18610;49.916;8.284;2023-06-26T12:41:47;33.20;40.20
32097;DHT22;18610;49.916;8.284;2023-06-26T12:44:17;33.00;41.30
32097;DHT22;18610;49.916;8.284;2023-06-26T12:46:47;33.00;42.20
32097;DHT22;18610;49.916;8.284;2023-06-26T12:49:15;32.80;40.90
32097;DHT22;18610;49.916;8.284;2023-06-26T12:51:41;32.80;41.60
32097;DHT22;18610;49.916;8.284;2023-06-26T12:54:09;32.90;42.20
32097;DHT22;18610;49.916;8.284;2023-06-26T12:56:36;33.10;41.80
32097;DHT22;18610;49.916;8.284;2023-06-26T12:59:02;33.30;42.70
32097;DHT22;18610;49.916;8.284;2023-06-26T13:01:29;33.40;41.50
32097;DHT22;18610;49.916;8.284;2023-06-26T13:03:57;33.50;41.70
32097;DHT22;18610;49.916;8.284;2023-06-26T13:06:24;33.50;41.20
32097;DHT22;18610;49.916;8.284;2023-06-26T13:08:51;33.20;41.00
32097;DHT22;18610;49.916;8.284;2023-06-26T13:11:17;33.20;41.20
32097;DHT22;18610;49.916;8.284;2023-06-26T13:13:44;33.20;41.30
32097;DHT22;18610;49.916;8.284;2023-06-26T13:16:11;32.90;42.00
32097;DHT22;18610;49.916;8.284;2023-06-26T13:18:37;32.90;41.50
32097;DHT22;18610;49.916;8.284;2023-06-26T13:21:06;32.90;39.00
32097;DHT22;18610;49.916;8.284;2023-06-26T13:23:32;32.80;36.00
32097;DHT22;18610;49.916;8.284;2023-06-26T13:25:59;32.50;36.90
32097;DHT22;18610;49.916;8.284;2023-06-26T13:28:26;32.40;38.10
32097;DHT22;18610;49.916;8.284;2023-06-26T13:30:53;32.40;38.70
32097;DHT22;18610;49.916;8.284;2023-06-26T13:33:20;32.40;36.50
32097;DHT22;18610;49.916;8.284;2023-06-26T13:35:46;32.10;39.30
32097;DHT22;18610;49.916;8.284;2023-06-26T13:38:15;32.10;41.40
32097;DHT22;18610;49.916;8.284;2023-06-26T13:40:43;32.20;41.90
32097;DHT22;18610;49.916;8.284;2023-06-26T13:43:09;32.00;39.80
32097;DHT22;18610;49.916;8.284;2023-06-26T13:45:37;31.90;40.50
32097;DHT22;18610;49.916;8.284;2023-06-26T13:48:04;31.80;40.00
32097;DHT22;18610;49.916;8.284;2023-06-26T13:50:31;31.90;39.80
32097;DHT22;18610;49.916;8.284;2023-06-26T13:52:57;32.10;39.90
32097;DHT22;18610;49.916;8.284;2023-06-26T13:55:25;32.10;41.00
32097;DHT22;18610;49.916;8.284;2023-06-26T13:57:52;32.00;41.10
32097;DHT22;18610;49.916;8.284;2023-06-26T14:00:19;32.00;41.40
32097;DHT22;18610;49.916;8.284;2023-06-26T14:02:47;32.00;39.90
32097;DHT22;18610;49.916;8.284;2023-06-26T14:05:14;31.90;39.90
32097;DHT22;18610;49.916;8.284;2023-06-26T14:07:43;31.80;39.20
32097;DHT22;18610;49.916;8.284;2023-06-26T14:10:10;31.60;39.00
32097;DHT22;18610;49.916;8.284;2023-06-26T14:12:38;31.70;39.80
32097;DHT22;18610;49.916;8.284;2023-06-26T14:15:05;31.80;39.20
32097;DHT22;18610;49.916;8.284;2023-06-26T14:17:32;32.00;40.10
32097;DHT22;18610;49.916;8.284;2023-06-26T14:19:59;32.10;39.50
32097;DHT22;18610;49.916;8.284;2023-06-26T14:22:25;32.20;40.10
32097;DHT22;18610;49.916;8.284;2023-06-26T14:24:53;32.30;40.50
32097;DHT22;18610;49.916;8.284;2023-06-26T14:27:19;32.40;40.00
32097;DHT22;18610;49.916;8.284;2023-06-26T14:29:48;32.30;39.60
32097;DHT22;18610;49.916;8.284;2023-06-26T14:32:15;32.20;39.40
32097;DHT22;18610;49.916;8.284;2023-06-26T14:34:41;32.20;40.20
32097;DHT22;18610;49.916;8.284;2023-06-26T14:37:08;32.00;41.10
32097;DHT22;18610;49.916;8.284;2023-06-26T14:39:35;31.60;41.50
32097;DHT22;18610;49.916;8.284;2023-06-26T14:42:04;31.20;40.90
32097;DHT22;18610;49.916;8.284;2023-06-26T14:44:31;31.10;42.20
32097;DHT22;18610;49.916;8.284;2023-06-26T14:46:59;31.20;42.50
32097;DHT22;18610;49.916;8.284;2023-06-26T14:49:25;31.30;42.50
32097;DHT22;18610;49.916;8.284;2023-06-26T14:51:52;31.50;42.60
32097;DHT22;18610;49.916;8.284;2023-06-26T14:54:19;31.70;42.40
32097;DHT22;18610;49.916;8.284;2023-06-26T14:56:46;31.80;41.40
32097;DHT22;18610;49.916;8.284;2023-06-26T14:59:13;31.90;41.00
32097;DHT22;18610;49.916;8.284;2023-06-26T15:01:40;31.90;41.00
32097;DHT22;18610;49.916;8.284;2023-06-26T15:04:08;31.80;39.90
32097;DHT22;18610;49.916;8.284;2023-06-26T15:06:35;31.70;40.60
32097;DHT22;18610;49.916;8.284;2023-06-26T15:09:03;31.70;42.50
32097;DHT22;18610;49.916;8.284;2023-06-26T15:11:31;31.80;44.10
32097;DHT22;18610;49.916;8.284;2023-06-26T15:13:57;31.80;44.30
32097;DHT22;18610;49.916;8.284;2023-06-26T15:16:24;31.70;44.10
32097;DHT22;18610;49.916;8.284;2023-06-26T15:18:51;31.70;44.10
32097;DHT22;18610;49.916;8.284;2023-06-26T15:21:19;31.70;43.70
32097;DHT22;18610;49.916;8.284;2023-06-26T15:23:46;31.50;44.30
32097;DHT22;18610;49.916;8.284;2023-06-26T15:26:13;31.40;44.50
32097;DHT22;18610;49.916;8.284;2023-06-26T15:28:40;31.20;44.90
32097;DHT22;18610;49.916;8.284;2023-06-26T15:31:06;31.10;44.90
32097;DHT22;18610;49.916;8.284;2023-06-26T15:33:33;30.90;45.30